• Join FlightAware (Why Join?)
  • Login
  • US Flag 
07:53AM EDT


 

Airport Tracker/Info


-or-


 

Live Flight TrackerFlight Track Log ✈ SWA1910 ✈ 10-Apr-2013 ✈ KFLL - KBUF

Flight Track Log - Related Links

Times and Time Zones

All times are in EDT time to prevent confusion due to time zone crossing. See the SWA1910 flight status page for this flight to view local times or setup timezone preferences in your user account.

Time Position Orientation Groundspeed Altitude Reporting Facility
EDT Latitude Longitude Course Direction KTS MPH feet Rate Location/Type
02:18PM 26.0581 -80.1431 82° East 134 154 800  Level Miami Center
02:19PM 26.0681 -80.0672 82° East 219 252 3,700 1,860 Climbing Miami Center
02:20PM 26.0883 -80.0028 71° East 263 303 5,000 1,020 Climbing Miami Center
02:21PM 26.1172 -79.9250 68° East 277 319 5,800 2,160 Climbing Miami Center
02:22PM 26.1611 -79.8242 64° Northeast 279 321 9,900 2,700 Climbing Miami Center
02:23PM 26.2086 -79.7397 58° Northeast 294 338 11,800 2,400 Climbing Miami Center
02:24PM 26.2667 -79.6508 54° Northeast 330 380 14,800 2,760 Climbing Miami Center
02:25PM 26.3247 -79.5619 54° Northeast 376 433 17,400 2,700 Climbing Miami Center
02:26PM 26.4203 -79.4806 37° Northeast 386 444 20,300 2,400 Climbing Miami Center
02:27PM 26.5111 -79.4314 26° Northeast 395 455 22,300 2,160 Climbing Miami Center
02:28PM 26.6292 -79.3689 25° Northeast 414 476 24,700 2,100 Climbing Miami Center
02:29PM 26.7450 -79.3086 25° Northeast 425 489 26,600 1,800 Climbing Miami Center
02:30PM 26.8567 -79.2481 26° Northeast 437 503 28,300 1,620 Climbing Miami Center
02:31PM 26.9725 -79.1875 25° Northeast 442 509 29,900 1,800 Climbing Miami Center
02:32PM 27.0778 -79.1289 26° Northeast 452 520 31,900 1,800 Climbing Miami Center
02:33PM 27.1894 -79.0681 26° Northeast 446 513 33,600 1,740 Climbing Miami Center
02:34PM 27.3200 -79.0003 25° Northeast 446 513 35,400 1,620 Climbing Miami Center
02:35PM 27.4314 -78.9464 23° Northeast 441 507 36,900 780 Climbing Miami Center
02:36PM 27.5444 -78.9272 North 423 487 37,000  Climbing Miami Center
02:37PM 27.6492 -78.9150 North 417 480 37,000  Level Miami Center
02:38PM 27.7808 -78.8964 North 417 480 37,000  Level Miami Center
02:39PM 27.8981 -78.8797 North 425 489 37,000  Level Miami Center
02:40PM 28.0111 -78.8650 North 425 489 37,000  Level Miami Center
02:41PM 28.1261 -78.8483 North 425 489 37,000  Level Miami Center
02:42PM 28.2453 -78.8317 North 425 489 37,000  Level Miami Center
02:43PM 28.3625 -78.8172 North 425 489 37,000  Level Miami Center
02:44PM 28.4775 -78.8003 North 420 483 37,000  Level Miami Center
02:45PM 28.6008 -78.7833 North 426 490 37,000  Level Miami Center
02:46PM 28.7219 -78.7689 North 431 496 37,000  Level Miami Center
02:47PM 28.8453 -78.7497 North 431 496 37,000  Level Miami Center
02:48PM 28.9583 -78.7328 North 426 490 37,000  Level Miami Center
02:49PM 29.0794 -78.7158 North 426 490 37,000  Level Miami Center
02:50PM 29.1967 -78.6964 North 426 490 37,000  Level Miami Center
02:51PM 29.3158 -78.6817 North 426 490 37,000  Level Miami Center
02:52PM 29.4389 -78.6669 North 421 484 37,000  Level Miami Center
02:53PM 29.5581 -78.6500 North 432 497 37,000  Level Miami Center
02:54PM 29.6567 -78.6244 13° North 425 489 37,000  Level Jacksonville Center
02:55PM 29.7689 -78.6125 North 430 495 37,000  Level Jacksonville Center
02:56PM 29.8892 -78.5928 North 430 495 37,000  Level Jacksonville Center
02:57PM 30.0117 -78.5728 North 436 502 37,000  Level Jacksonville Center
02:58PM 30.1367 -78.5650 North 441 507 37,000  Level Jacksonville Center
02:59PM 30.2697 -78.5444 North 434 499 37,000  Level Jacksonville Center
03:00PM 30.3922 -78.5269 North 437 503 37,000  Level Jacksonville Center
03:01PM 30.5147 -78.5092 North 439 505 37,000  Level Jacksonville Center
03:02PM 30.6350 -78.4892 North 440 506 37,000  Level Jacksonville Center
03:03PM 30.7556 -78.4692 North 447 514 37,000  Level Jacksonville Center
03:04PM 30.8778 -78.4489 North 438 504 37,000  Level Jacksonville Center
03:05PM 30.9942 -78.4289 North 435 501 37,000  Level Jacksonville Center
03:06PM 31.1019 -78.4092 North 435 501 37,000  Level Jacksonville Center
03:07PM 31.2225 -78.3914 North 435 501 37,000  Level Jacksonville Center
03:08PM 31.3386 -78.3736 North 430 495 37,000  Level Jacksonville Center
03:09PM 31.4631 -78.3506 North 430 495 37,000  Level Jacksonville Center
03:10PM 31.5814 -78.3300 North 424 488 37,000  Level Jacksonville Center
03:11PM 31.6956 -78.3172 North 424 488 37,000  Level Jacksonville Center
03:12PM 31.8181 -78.2939 North 429 494 37,000  Level Jacksonville Center
03:13PM 31.9361 -78.2733 North 429 494 37,000  Level Jacksonville Center
03:14PM 32.0564 -78.2525 North 428 493 37,000  Level Jacksonville Center
03:15PM 32.1850 -78.2264 10° North 428 493 37,000  Level Jacksonville Center
03:16PM 32.3053 -78.2081 North 428 493 37,000  Level Jacksonville Center
03:17PM 32.4258 -78.1919 North 428 493 37,000  Level Jacksonville Center
03:18PM 32.5461 -78.1736 North 428 493 37,000  Level Jacksonville Center
03:19PM 32.6664 -78.1525 North 428 493 37,000  Level Jacksonville Center
03:20PM 32.7847 -78.1339 North 428 493 37,000  Level Jacksonville Center
03:21PM 32.9028 -78.1128 North 428 493 37,000  Level Jacksonville Center
03:22PM 33.0211 -78.0942 North 428 493 37,000  Level Jacksonville Center
03:23PM 33.1436 -78.0750 North 423 487 37,000  Level Jacksonville Center
03:25PM 33.3269 -78.0469 North 416 479 37,000  Level Washington Center
03:26PM 33.4483 -78.0256 North 426 490 37,000  Level Washington Center
03:27PM 33.5675 -78.0067 North 426 490 37,000  Level Washington Center
03:28PM 33.6869 -77.9850 North 426 490 37,000  Level Washington Center
03:29PM 33.8061 -77.9661 North 426 490 37,000  Level Washington Center
03:30PM 33.9422 -77.9425 North 426 490 37,000  Level Washington Center
03:31PM 34.0636 -77.9233 North 439 505 37,000  Level Washington Center
03:32PM 34.1850 -77.9042 North 439 505 37,000  Level Washington Center
03:33PM 34.3106 -77.8850 North 444 511 37,000  Level Washington Center
03:34PM 34.4297 -77.8758 North 444 511 37,000  Level Washington Center
03:35PM 34.5506 -77.8742 North 444 511 37,000  Level Washington Center
03:36PM 34.6758 -77.8725 North 439 505 37,000  Level Washington Center
03:37PM 34.7928 -77.8708 North 434 499 37,000  Level Washington Center
03:38PM 34.9097 -77.8664 North 426 490 37,000 480 Level Washington Center
03:39PM 35.0308 -77.8647 North 425 489 38,000 480 Climbing Washington Center
03:40PM 35.1497 -77.8606 North 425 489 38,000  Level Washington Center
03:41PM 35.2708 -77.8614 360° North 420 483 38,000  Level Washington Center
03:42PM 35.3919 -77.8572 North 420 483 38,000 60 Level Washington Center
03:43PM 35.5108 -77.8581 360° North 420 483 38,200 480 Climbing Washington Center
03:44PM 35.6339 -77.8536 North 420 483 39,000 360 Climbing Washington Center
03:45PM 35.7550 -77.8519 North 420 483 39,000  Level Washington Center
03:46PM 35.8761 -77.8531 360° North 425 489 39,000  Level Washington Center
03:47PM 35.9969 -77.8514 North 425 489 39,000  Level Washington Center
03:48PM 36.1161 -77.8494 North 420 483 39,000  Level Washington Center
03:49PM 36.2392 -77.8481 North 425 489 39,000  Level Washington Center
03:50PM 36.3581 -77.8461 North 425 489 39,000  Level Washington Center
03:51PM 36.4708 -77.8469 360° North 417 480 39,000  Level Washington Center
03:52PM 36.5897 -77.8450 North 412 474 39,000  Level Washington Center
03:53PM 36.7086 -77.8433 North 412 474 39,000  Level Washington Center
03:54PM 36.8278 -77.8389 North 418 481 39,000  Level Washington Center
03:55PM 36.9467 -77.8400 360° North 424 488 39,000  Level Washington Center
03:56PM 37.0656 -77.8356 North 424 488 39,000  Level Washington Center
03:57PM 37.1844 -77.8364 360° North 424 488 39,000  Level Washington Center
03:58PM 37.3075 -77.8347 North 424 488 39,000  Level Washington Center
03:59PM 37.4286 -77.8331 North 429 494 39,000  Level Washington Center
04:00PM 37.5517 -77.8342 360° North 429 494 39,000  Level Washington Center
04:01PM 37.6678 -77.8664 348° North 429 494 39,000  Level Washington Center
04:02PM 37.7881 -77.9017 347° North 429 494 39,000  Level Washington Center
04:03PM 37.9044 -77.9342 348° North 429 494 39,000  Level Washington Center
04:04PM 38.0203 -77.9692 347° North 429 494 39,000  Level Washington Center
04:05PM 38.1264 -77.9939 350° North 434 499 39,000  Level Washington Center
04:06PM 38.2528 -78.0294 348° North 428 493 39,000  Level Washington Center
04:07PM 38.3689 -78.0625 347° North 423 487 39,000  Level Washington Center
04:08PM 38.4808 -78.0953 347° North 423 487 39,000  Level Washington Center
04:09PM 38.5928 -78.1283 347° North 416 479 39,000  Level Washington Center
04:10PM 38.7047 -78.1614 347° North 410 472 39,000  Level Washington Center
04:11PM 38.8039 -78.1917 347° North 410 472 39,000  Level Washington Center
04:12PM 38.9286 -78.2147 352° North 410 472 39,000  Level Washington Center
04:13PM 39.0347 -78.2239 356° North 410 472 39,000  Level Washington Center
04:14PM 39.1617 -78.2392 355° North 410 472 39,000  Level Washington Center
04:17PM 39.5414 -78.2789 355° North 426 490 39,000  Level Cleveland Center
04:18PM 39.6542 -78.2886 356° North 413 475 39,000  Level Cleveland Center
04:19PM 39.7669 -78.3008 355° North 407 468 39,000  Level Cleveland Center
04:20PM 39.8778 -78.3133 355° North 407 468 39,000 -540 Level Cleveland Center
04:21PM 39.9883 -78.3233 356° North 407 468 38,000 -1,020 Descending Cleveland Center
04:22PM 40.1033 -78.3356 355° North 407 468 37,000 -1,320 Descending Cleveland Center
04:23PM 40.2161 -78.3481 355° North 407 468 35,400 -2,040 Descending Cleveland Center
04:24PM 40.3289 -78.3606 355° North 407 468 33,000 -2,400 Descending Cleveland Center
04:25PM 40.4419 -78.3733 355° North 407 468 30,600 -2,400 Descending Cleveland Center
04:26PM 40.5589 -78.3858 355° North 412 474 28,200 -1,440 Descending Cleveland Center
04:27PM 40.6756 -78.3875 359° North 412 474 27,800 -600 Descending Cleveland Center
04:28PM 40.7875 -78.3508 14° North 406 467 27,000 -420 Descending Cleveland Center
04:29PM 40.9033 -78.3111 15° North 413 475 27,000  Level Cleveland Center
04:30PM 41.0172 -78.2631 18° North 418 481 27,000  Level Cleveland Center
04:31PM 41.1294 -78.2428 North 418 481 27,000  Level Cleveland Center
04:32PM 41.2442 -78.2522 356° North 408 470 27,000  Level Cleveland Center
04:33PM 41.3456 -78.3094 337° Northwest 394 453 27,000  Level Cleveland Center
04:34PM 41.4300 -78.3731 331° Northwest 386 444 27,000  Level Cleveland Center
04:35PM 41.5233 -78.4475 329° Northwest 380 437 27,000  Level Cleveland Center
04:36PM 41.6142 -78.5194 329° Northwest 385 443 27,000 -420 Level Cleveland Center
04:37PM 41.7158 -78.6025 329° Northwest 390 449 26,200 -900 Descending Cleveland Center
04:38PM 41.8083 -78.6611 335° Northwest 384 442 25,200 -1,140 Descending Cleveland Center
04:39PM 41.9075 -78.7194 336° Northwest 378 435 24,000 -600 Descending Cleveland Center
04:40PM 42.0019 -78.7725 337° Northwest 372 428 24,000 -180 Level Cleveland Center
04:41PM 42.1025 -78.8006 348° North 366 421 23,700 -1,260 Descending Cleveland Center
04:42PM 42.2025 -78.7978 North 371 427 21,500 -2,520 Descending Cleveland Center
04:43PM 42.3106 -78.7778 North 387 445 18,700 -2,100 Descending Cleveland Center
04:44PM 42.4125 -78.7636 North 375 432 17,400 -1,680 Descending Cleveland Center
04:45PM 42.5019 -78.7442 North 354 407 15,400 -2,040 Descending Cleveland Center
04:46PM 42.5692 -78.7872 335° Northwest 279 321 13,400 -2,100 Descending Cleveland Center
04:47PM 42.6161 -78.8622 310° West 256 295 11,300 -2,100 Descending Cleveland Center
04:48PM 42.6569 -78.9431 305° West 256 295 9,200 -2,520 Descending Cleveland Center
04:49PM 42.7261 -78.9694 344° North 239 275 6,300 -3,180 Descending Cleveland Center
04:50PM 42.7964 -78.9222 26° Northeast 242 278 2,900 -2,040 Descending Cleveland Center
04:51PM 42.8414 -78.8644 43° Northeast 221 254 2,300 -420 Descending Cleveland Center
04:53PM 42.9000 -78.7833 45° Northeast 128 147 1,700 -480 Descending Buffalo TRACON
04:54PM 42.9167 -78.7500 56° Northeast 127 146 1,000 -720 Descending Buffalo TRACON
04:56PM 42.9333 -78.7167 289° West  Level FlightAware Approximate
05:03PM 42.9404 -78.7306 289° West  Level Estimated